sensor_id;sensor_type;location;lat;lon;timestamp;P1;durP1;ratioP1;P2;durP2;ratioP2
70148;SDS011;57514;52.164;5.282;2022-07-30T00:00:15;10.20;;;4.70;;
70148;SDS011;57514;52.164;5.282;2022-07-30T00:02:50;12.18;;;4.82;;
70148;SDS011;57514;52.164;5.282;2022-07-30T00:05:17;11.57;;;5.10;;
70148;SDS011;57514;52.164;5.282;2022-07-30T00:07:44;11.52;;;4.95;;
70148;SDS011;57514;52.164;5.282;2022-07-30T00:10:12;12.52;;;4.82;;
70148;SDS011;57514;52.164;5.282;2022-07-30T00:12:42;14.57;;;5.05;;
70148;SDS011;57514;52.164;5.282;2022-07-30T00:15:08;10.85;;;4.78;;
70148;SDS011;57514;52.164;5.282;2022-07-30T00:17:35;11.20;;;5.18;;
70148;SDS011;57514;52.164;5.282;2022-07-30T00:20:03;11.00;;;5.30;;
70148;SDS011;57514;52.164;5.282;2022-07-30T00:22:30;11.95;;;6.40;;
70148;SDS011;57514;52.164;5.282;2022-07-30T00:24:58;15.60;;;5.53;;
70148;SDS011;57514;52.164;5.282;2022-07-30T00:27:25;13.90;;;5.50;;
70148;SDS011;57514;52.164;5.282;2022-07-30T00:29:52;16.48;;;6.30;;
70148;SDS011;57514;52.164;5.282;2022-07-30T00:32:18;12.07;;;5.28;;
70148;SDS011;57514;52.164;5.282;2022-07-30T00:34:46;13.20;;;5.25;;
70148;SDS011;57514;52.164;5.282;2022-07-30T00:37:12;11.18;;;5.63;;
70148;SDS011;57514;52.164;5.282;2022-07-30T00:39:40;16.95;;;5.75;;
70148;SDS011;57514;52.164;5.282;2022-07-30T00:42:07;11.85;;;5.20;;
70148;SDS011;57514;52.164;5.282;2022-07-30T00:44:34;12.50;;;5.47;;
70148;SDS011;57514;52.164;5.282;2022-07-30T00:47:06;12.07;;;5.38;;
70148;SDS011;57514;52.164;5.282;2022-07-30T00:49:33;11.35;;;5.65;;
70148;SDS011;57514;52.164;5.282;2022-07-30T00:52:00;12.18;;;4.88;;
70148;SDS011;57514;52.164;5.282;2022-07-30T00:54:27;12.77;;;5.93;;
70148;SDS011;57514;52.164;5.282;2022-07-30T00:56:55;11.90;;;5.30;;
70148;SDS011;57514;52.164;5.282;2022-07-30T00:59:22;13.43;;;5.18;;
70148;SDS011;57514;52.164;5.282;2022-07-30T01:01:49;12.43;;;5.20;;
70148;SDS011;57514;52.164;5.282;2022-07-30T01:04:16;10.98;;;5.25;;
70148;SDS011;57514;52.164;5.282;2022-07-30T01:06:43;12.40;;;5.43;;
70148;SDS011;57514;52.164;5.282;2022-07-30T01:09:10;13.73;;;5.35;;
70148;SDS011;57514;52.164;5.282;2022-07-30T01:11:40;13.18;;;6.07;;
70148;SDS011;57514;52.164;5.282;2022-07-30T01:14:08;14.60;;;5.72;;
70148;SDS011;57514;52.164;5.282;2022-07-30T01:16:36;11.30;;;5.20;;
70148;SDS011;57514;52.164;5.282;2022-07-30T01:19:06;12.38;;;5.10;;
70148;SDS011;57514;52.164;5.282;2022-07-30T01:21:59;11.13;;;5.25;;
70148;SDS011;57514;52.164;5.282;2022-07-30T01:24:35;10.70;;;5.10;;
70148;SDS011;57514;52.164;5.282;2022-07-30T01:27:06;11.18;;;4.95;;
70148;SDS011;57514;52.164;5.282;2022-07-30T01:29:35;13.20;;;5.53;;
70148;SDS011;57514;52.164;5.282;2022-07-30T01:32:06;12.75;;;5.68;;
70148;SDS011;57514;52.164;5.282;2022-07-30T01:34:34;15.32;;;6.25;;
70148;SDS011;57514;52.164;5.282;2022-07-30T01:37:05;10.40;;;5.22;;
70148;SDS011;57514;52.164;5.282;2022-07-30T01:39:34;12.48;;;5.80;;
70148;SDS011;57514;52.164;5.282;2022-07-30T01:42:02;12.43;;;6.00;;
70148;SDS011;57514;52.164;5.282;2022-07-30T01:44:32;14.05;;;5.80;;
70148;SDS011;57514;52.164;5.282;2022-07-30T01:46:59;11.85;;;6.00;;
70148;SDS011;57514;52.164;5.282;2022-07-30T01:49:29;13.25;;;5.90;;
70148;SDS011;57514;52.164;5.282;2022-07-30T01:54:27;13.77;;;5.57;;
70148;SDS011;57514;52.164;5.282;2022-07-30T01:56:56;12.52;;;5.57;;
70148;SDS011;57514;52.164;5.282;2022-07-30T01:59:24;14.10;;;7.05;;
70148;SDS011;57514;52.164;5.282;2022-07-30T02:01:53;12.63;;;6.03;;
70148;SDS011;57514;52.164;5.282;2022-07-30T02:04:21;13.07;;;6.28;;
70148;SDS011;57514;52.164;5.282;2022-07-30T02:07:02;14.57;;;6.80;;
70148;SDS011;57514;52.164;5.282;2022-07-30T02:09:39;13.27;;;7.40;;
70148;SDS011;57514;52.164;5.282;2022-07-30T02:12:13;17.25;;;6.55;;
70148;SDS011;57514;52.164;5.282;2022-07-30T02:14:59;13.88;;;6.30;;
70148;SDS011;57514;52.164;5.282;2022-07-30T02:17:37;13.10;;;6.22;;
70148;SDS011;57514;52.164;5.282;2022-07-30T02:20:10;14.13;;;7.10;;
70148;SDS011;57514;52.164;5.282;2022-07-30T02:22:41;15.18;;;6.95;;
70148;SDS011;57514;52.164;5.282;2022-07-30T02:25:12;11.35;;;6.00;;
70148;SDS011;57514;52.164;5.282;2022-07-30T02:27:42;11.52;;;5.72;;
70148;SDS011;57514;52.164;5.282;2022-07-30T02:30:11;11.93;;;5.85;;
70148;SDS011;57514;52.164;5.282;2022-07-30T02:32:40;10.77;;;5.10;;
70148;SDS011;57514;52.164;5.282;2022-07-30T02:35:12;11.15;;;5.82;;
70148;SDS011;57514;52.164;5.282;2022-07-30T02:37:42;14.02;;;6.05;;
70148;SDS011;57514;52.164;5.282;2022-07-30T02:40:13;12.18;;;6.10;;
70148;SDS011;57514;52.164;5.282;2022-07-30T02:42:42;13.10;;;5.78;;
70148;SDS011;57514;52.164;5.282;2022-07-30T02:45:17;12.25;;;6.47;;
70148;SDS011;57514;52.164;5.282;2022-07-30T02:47:45;14.18;;;5.38;;
70148;SDS011;57514;52.164;5.282;2022-07-30T02:50:16;12.07;;;5.65;;
70148;SDS011;57514;52.164;5.282;2022-07-30T02:52:45;13.35;;;6.20;;
70148;SDS011;57514;52.164;5.282;2022-07-30T02:55:13;13.77;;;5.90;;
70148;SDS011;57514;52.164;5.282;2022-07-30T02:57:42;13.70;;;6.43;;
70148;SDS011;57514;52.164;5.282;2022-07-30T03:00:10;12.77;;;5.00;;
70148;SDS011;57514;52.164;5.282;2022-07-30T03:02:39;12.90;;;6.00;;
70148;SDS011;57514;52.164;5.282;2022-07-30T03:05:09;12.15;;;6.38;;
70148;SDS011;57514;52.164;5.282;2022-07-30T03:07:38;14.02;;;6.57;;
70148;SDS011;57514;52.164;5.282;2022-07-30T03:10:06;13.98;;;6.20;;
70148;SDS011;57514;52.164;5.282;2022-07-30T03:12:34;10.88;;;6.35;;
70148;SDS011;57514;52.164;5.282;2022-07-30T03:15:01;12.20;;;5.30;;
70148;SDS011;57514;52.164;5.282;2022-07-30T03:17:30;14.10;;;6.55;;
70148;SDS011;57514;52.164;5.282;2022-07-30T03:20:02;16.35;;;6.85;;
70148;SDS011;57514;52.164;5.282;2022-07-30T03:22:34;13.63;;;6.60;;
70148;SDS011;57514;52.164;5.282;2022-07-30T03:25:07;14.65;;;6.70;;
70148;SDS011;57514;52.164;5.282;2022-07-30T03:27:35;13.25;;;6.13;;
70148;SDS011;57514;52.164;5.282;2022-07-30T03:30:04;12.63;;;6.63;;
70148;SDS011;57514;52.164;5.282;2022-07-30T03:32:31;17.65;;;7.80;;
70148;SDS011;57514;52.164;5.282;2022-07-30T03:35:01;14.23;;;7.63;;
70148;SDS011;57514;52.164;5.282;2022-07-30T03:37:34;12.35;;;6.72;;
70148;SDS011;57514;52.164;5.282;2022-07-30T03:40:03;15.50;;;6.78;;
70148;SDS011;57514;52.164;5.282;2022-07-30T03:42:32;12.07;;;6.10;;
70148;SDS011;57514;52.164;5.282;2022-07-30T03:45:01;12.38;;;6.18;;
70148;SDS011;57514;52.164;5.282;2022-07-30T03:47:31;12.98;;;6.07;;
70148;SDS011;57514;52.164;5.282;2022-07-30T03:50:00;12.88;;;6.28;;
70148;SDS011;57514;52.164;5.282;2022-07-30T03:52:33;13.60;;;6.65;;
70148;SDS011;57514;52.164;5.282;2022-07-30T03:55:08;13.32;;;6.05;;
70148;SDS011;57514;52.164;5.282;2022-07-30T03:57:36;15.30;;;6.70;;
70148;SDS011;57514;52.164;5.282;2022-07-30T04:00:11;12.70;;;6.40;;
70148;SDS011;57514;52.164;5.282;2022-07-30T04:02:44;11.80;;;6.35;;
70148;SDS011;57514;52.164;5.282;2022-07-30T04:05:30;12.35;;;6.57;;
70148;SDS011;57514;52.164;5.282;2022-07-30T04:10:33;13.00;;;6.30;;
70148;SDS011;57514;52.164;5.282;2022-07-30T04:13:23;10.82;;;6.13;;
70148;SDS011;57514;52.164;5.282;2022-07-30T04:15:53;12.32;;;6.50;;
70148;SDS011;57514;52.164;5.282;2022-07-30T04:18:43;15.20;;;6.78;;
70148;SDS011;57514;52.164;5.282;2022-07-30T04:21:15;13.70;;;6.82;;
70148;SDS011;57514;52.164;5.282;2022-07-30T04:26:30;14.60;;;6.60;;
70148;SDS011;57514;52.164;5.282;2022-07-30T04:29:00;12.63;;;6.55;;
70148;SDS011;57514;52.164;5.282;2022-07-30T04:31:29;12.88;;;6.45;;
70148;SDS011;57514;52.164;5.282;2022-07-30T04:34:24;11.30;;;6.07;;
70148;SDS011;57514;52.164;5.282;2022-07-30T04:36:52;12.32;;;6.43;;
70148;SDS011;57514;52.164;5.282;2022-07-30T04:39:19;12.02;;;6.35;;
70148;SDS011;57514;52.164;5.282;2022-07-30T04:41:46;15.20;;;6.80;;
70148;SDS011;57514;52.164;5.282;2022-07-30T04:47:20;13.57;;;6.93;;
70148;SDS011;57514;52.164;5.282;2022-07-30T04:52:35;14.13;;;7.57;;
70148;SDS011;57514;52.164;5.282;2022-07-30T04:55:04;14.07;;;7.70;;
70148;SDS011;57514;52.164;5.282;2022-07-30T04:57:34;16.55;;;8.45;;
70148;SDS011;57514;52.164;5.282;2022-07-30T05:00:04;15.63;;;8.57;;
70148;SDS011;57514;52.164;5.282;2022-07-30T05:02:34;16.23;;;8.88;;
70148;SDS011;57514;52.164;5.282;2022-07-30T05:05:03;13.30;;;6.80;;
70148;SDS011;57514;52.164;5.282;2022-07-30T05:07:30;12.65;;;6.80;;
70148;SDS011;57514;52.164;5.282;2022-07-30T05:09:59;12.48;;;7.38;;
70148;SDS011;57514;52.164;5.282;2022-07-30T05:12:32;12.93;;;7.72;;
70148;SDS011;57514;52.164;5.282;2022-07-30T05:15:04;13.85;;;7.57;;
70148;SDS011;57514;52.164;5.282;2022-07-30T05:17:32;13.45;;;7.15;;
70148;SDS011;57514;52.164;5.282;2022-07-30T05:20:01;16.38;;;7.25;;
70148;SDS011;57514;52.164;5.282;2022-07-30T05:22:38;14.15;;;8.27;;
70148;SDS011;57514;52.164;5.282;2022-07-30T05:25:16;13.80;;;8.10;;
70148;SDS011;57514;52.164;5.282;2022-07-30T05:27:43;16.42;;;9.20;;
70148;SDS011;57514;52.164;5.282;2022-07-30T05:30:10;14.98;;;8.57;;
70148;SDS011;57514;52.164;5.282;2022-07-30T05:32:42;14.82;;;7.38;;
70148;SDS011;57514;52.164;5.282;2022-07-30T05:35:12;17.65;;;9.43;;
70148;SDS011;57514;52.164;5.282;2022-07-30T05:37:39;17.70;;;9.05;;
70148;SDS011;57514;52.164;5.282;2022-07-30T05:40:06;16.38;;;9.45;;
70148;SDS011;57514;52.164;5.282;2022-07-30T05:43:00;17.35;;;10.00;;
70148;SDS011;57514;52.164;5.282;2022-07-30T05:45:27;17.00;;;8.85;;
70148;SDS011;57514;52.164;5.282;2022-07-30T05:47:55;18.60;;;9.52;;
70148;SDS011;57514;52.164;5.282;2022-07-30T05:50:21;19.75;;;10.15;;
70148;SDS011;57514;52.164;5.282;2022-07-30T05:52:48;17.50;;;9.48;;
70148;SDS011;57514;52.164;5.282;2022-07-30T05:55:35;16.02;;;9.07;;
70148;SDS011;57514;52.164;5.282;2022-07-30T05:58:25;16.02;;;9.27;;
70148;SDS011;57514;52.164;5.282;2022-07-30T06:00:52;17.55;;;9.48;;
70148;SDS011;57514;52.164;5.282;2022-07-30T06:03:20;16.23;;;8.48;;
70148;SDS011;57514;52.164;5.282;2022-07-30T06:06:13;14.70;;;8.50;;
70148;SDS011;57514;52.164;5.282;2022-07-30T06:08:45;17.67;;;8.65;;
70148;SDS011;57514;52.164;5.282;2022-07-30T06:11:11;16.25;;;8.68;;
70148;SDS011;57514;52.164;5.282;2022-07-30T06:13:39;17.02;;;8.35;;
70148;SDS011;57514;52.164;5.282;2022-07-30T06:16:05;16.00;;;8.57;;
70148;SDS011;57514;52.164;5.282;2022-07-30T06:18:33;13.40;;;8.23;;
70148;SDS011;57514;52.164;5.282;2022-07-30T06:21:07;13.63;;;6.70;;
70148;SDS011;57514;52.164;5.282;2022-07-30T06:23:56;14.20;;;6.88;;
70148;SDS011;57514;52.164;5.282;2022-07-30T06:26:36;12.32;;;6.10;;
70148;SDS011;57514;52.164;5.282;2022-07-30T06:29:05;12.00;;;5.55;;
70148;SDS011;57514;52.164;5.282;2022-07-30T06:31:32;10.38;;;5.38;;
70148;SDS011;57514;52.164;5.282;2022-07-30T06:34:00;12.60;;;6.07;;
70148;SDS011;57514;52.164;5.282;2022-07-30T06:36:31;11.05;;;5.20;;
70148;SDS011;57514;52.164;5.282;2022-07-30T06:39:05;9.38;;;4.70;;
70148;SDS011;57514;52.164;5.282;2022-07-30T06:41:51;8.40;;;3.80;;
70148;SDS011;57514;52.164;5.282;2022-07-30T06:44:18;8.50;;;3.40;;
70148;SDS011;57514;52.164;5.282;2022-07-30T06:47:04;8.32;;;3.13;;
70148;SDS011;57514;52.164;5.282;2022-07-30T06:49:35;9.85;;;3.35;;
70148;SDS011;57514;52.164;5.282;2022-07-30T06:52:05;7.50;;;3.28;;
70148;SDS011;57514;52.164;5.282;2022-07-30T06:54:33;9.05;;;3.20;;
70148;SDS011;57514;52.164;5.282;2022-07-30T06:57:10;8.43;;;2.88;;
70148;SDS011;57514;52.164;5.282;2022-07-30T06:59:37;7.47;;;2.80;;
70148;SDS011;57514;52.164;5.282;2022-07-30T07:02:37;7.50;;;2.85;;
70148;SDS011;57514;52.164;5.282;2022-07-30T07:05:08;8.93;;;2.65;;
70148;SDS011;57514;52.164;5.282;2022-07-30T07:07:38;7.60;;;2.83;;
70148;SDS011;57514;52.164;5.282;2022-07-30T07:10:18;9.45;;;2.85;;
70148;SDS011;57514;52.164;5.282;2022-07-30T07:12:51;6.57;;;2.53;;
70148;SDS011;57514;52.164;5.282;2022-07-30T07:15:19;5.82;;;2.20;;
70148;SDS011;57514;52.164;5.282;2022-07-30T07:17:57;5.57;;;2.70;;
70148;SDS011;57514;52.164;5.282;2022-07-30T07:20:38;7.55;;;2.70;;
70148;SDS011;57514;52.164;5.282;2022-07-30T07:23:07;6.55;;;2.75;;
70148;SDS011;57514;52.164;5.282;2022-07-30T07:25:39;7.53;;;2.88;;
70148;SDS011;57514;52.164;5.282;2022-07-30T07:28:06;6.10;;;2.55;;
70148;SDS011;57514;52.164;5.282;2022-07-30T07:30:39;9.57;;;2.70;;
70148;SDS011;57514;52.164;5.282;2022-07-30T07:33:07;5.75;;;2.53;;
70148;SDS011;57514;52.164;5.282;2022-07-30T07:35:35;6.13;;;3.15;;
70148;SDS011;57514;52.164;5.282;2022-07-30T07:38:17;7.30;;;2.70;;
70148;SDS011;57514;52.164;5.282;2022-07-30T07:40:45;7.30;;;2.40;;
70148;SDS011;57514;52.164;5.282;2022-07-30T07:43:13;6.72;;;2.40;;
70148;SDS011;57514;52.164;5.282;2022-07-30T07:45:41;7.15;;;2.47;;
70148;SDS011;57514;52.164;5.282;2022-07-30T07:48:09;7.30;;;2.58;;
70148;SDS011;57514;52.164;5.282;2022-07-30T07:50:48;5.82;;;2.47;;
70148;SDS011;57514;52.164;5.282;2022-07-30T07:53:21;8.65;;;2.63;;
70148;SDS011;57514;52.164;5.282;2022-07-30T07:55:48;7.10;;;2.70;;
70148;SDS011;57514;52.164;5.282;2022-07-30T07:58:15;6.18;;;2.55;;
70148;SDS011;57514;52.164;5.282;2022-07-30T08:00:54;5.90;;;2.50;;
70148;SDS011;57514;52.164;5.282;2022-07-30T08:03:28;5.70;;;2.35;;
70148;SDS011;57514;52.164;5.282;2022-07-30T08:06:02;4.80;;;2.20;;
70148;SDS011;57514;52.164;5.282;2022-07-30T08:08:50;11.07;;;3.08;;
70148;SDS011;57514;52.164;5.282;2022-07-30T08:11:45;7.93;;;2.30;;
70148;SDS011;57514;52.164;5.282;2022-07-30T08:14:31;5.53;;;2.35;;
70148;SDS011;57514;52.164;5.282;2022-07-30T08:17:17;6.53;;;2.05;;
70148;SDS011;57514;52.164;5.282;2022-07-30T08:20:05;4.88;;;2.10;;
70148;SDS011;57514;52.164;5.282;2022-07-30T08:22:32;7.20;;;2.60;;
70148;SDS011;57514;52.164;5.282;2022-07-30T08:25:00;5.45;;;2.28;;
70148;SDS011;57514;52.164;5.282;2022-07-30T08:29:56;4.63;;;2.40;;
70148;SDS011;57514;52.164;5.282;2022-07-30T08:32:23;7.43;;;2.55;;
70148;SDS011;57514;52.164;5.282;2022-07-30T08:34:50;5.30;;;2.38;;
70148;SDS011;57514;52.164;5.282;2022-07-30T08:37:19;7.85;;;2.40;;
70148;SDS011;57514;52.164;5.282;2022-07-30T08:39:45;6.93;;;2.45;;
70148;SDS011;57514;52.164;5.282;2022-07-30T08:42:12;5.25;;;2.45;;
70148;SDS011;57514;52.164;5.282;2022-07-30T08:44:40;7.20;;;2.70;;
70148;SDS011;57514;52.164;5.282;2022-07-30T08:50:05;6.28;;;2.47;;
70148;SDS011;57514;52.164;5.282;2022-07-30T08:52:38;8.30;;;3.20;;
70148;SDS011;57514;52.164;5.282;2022-07-30T08:55:06;4.93;;;1.90;;
70148;SDS011;57514;52.164;5.282;2022-07-30T08:57:34;4.85;;;2.20;;
70148;SDS011;57514;52.164;5.282;2022-07-30T09:00:02;5.72;;;2.20;;
70148;SDS011;57514;52.164;5.282;2022-07-30T09:02:31;5.25;;;2.42;;
70148;SDS011;57514;52.164;5.282;2022-07-30T09:05:01;9.25;;;2.58;;
70148;SDS011;57514;52.164;5.282;2022-07-30T09:07:31;7.35;;;2.30;;
70148;SDS011;57514;52.164;5.282;2022-07-30T09:10:00;6.30;;;2.53;;
70148;SDS011;57514;52.164;5.282;2022-07-30T09:12:36;6.50;;;2.40;;
70148;SDS011;57514;52.164;5.282;2022-07-30T09:20:22;8.68;;;2.53;;
70148;SDS011;57514;52.164;5.282;2022-07-30T09:22:51;7.38;;;2.65;;
70148;SDS011;57514;52.164;5.282;2022-07-30T09:25:56;5.30;;;2.33;;
70148;SDS011;57514;52.164;5.282;2022-07-30T09:28:44;5.93;;;2.30;;
70148;SDS011;57514;52.164;5.282;2022-07-30T09:31:14;6.40;;;2.53;;
70148;SDS011;57514;52.164;5.282;2022-07-30T09:34:00;6.18;;;2.58;;
70148;SDS011;57514;52.164;5.282;2022-07-30T09:36:57;5.65;;;2.42;;
70148;SDS011;57514;52.164;5.282;2022-07-30T09:39:43;6.05;;;2.20;;
70148;SDS011;57514;52.164;5.282;2022-07-30T09:42:35;3.58;;;2.10;;
70148;SDS011;57514;52.164;5.282;2022-07-30T09:45:11;6.35;;;2.05;;
70148;SDS011;57514;52.164;5.282;2022-07-30T09:47:44;6.28;;;2.33;;
70148;SDS011;57514;52.164;5.282;2022-07-30T09:50:16;5.53;;;2.55;;
70148;SDS011;57514;52.164;5.282;2022-07-30T09:53:06;5.47;;;2.17;;
70148;SDS011;57514;52.164;5.282;2022-07-30T09:55:39;5.80;;;2.50;;
70148;SDS011;57514;52.164;5.282;2022-07-30T09:58:07;6.72;;;1.92;;
70148;SDS011;57514;52.164;5.282;2022-07-30T10:00:42;5.22;;;2.17;;
70148;SDS011;57514;52.164;5.282;2022-07-30T10:03:24;5.85;;;2.20;;
70148;SDS011;57514;52.164;5.282;2022-07-30T10:06:35;5.07;;;1.95;;
70148;SDS011;57514;52.164;5.282;2022-07-30T10:09:28;3.75;;;2.00;;
70148;SDS011;57514;52.164;5.282;2022-07-30T10:12:03;5.38;;;2.25;;
70148;SDS011;57514;52.164;5.282;2022-07-30T10:14:36;4.18;;;1.95;;
70148;SDS011;57514;52.164;5.282;2022-07-30T10:17:08;5.97;;;2.20;;
70148;SDS011;57514;52.164;5.282;2022-07-30T10:19:38;3.50;;;2.08;;
70148;SDS011;57514;52.164;5.282;2022-07-30T10:25:11;6.65;;;2.10;;
70148;SDS011;57514;52.164;5.282;2022-07-30T10:28:16;6.45;;;1.88;;
70148;SDS011;57514;52.164;5.282;2022-07-30T10:30:47;4.63;;;1.83;;
70148;SDS011;57514;52.164;5.282;2022-07-30T10:33:16;5.93;;;2.20;;
70148;SDS011;57514;52.164;5.282;2022-07-30T10:36:04;5.30;;;1.83;;
70148;SDS011;57514;52.164;5.282;2022-07-30T10:38:34;4.68;;;2.03;;
70148;SDS011;57514;52.164;5.282;2022-07-30T10:44:18;3.35;;;1.95;;
70148;SDS011;57514;52.164;5.282;2022-07-30T10:47:07;6.15;;;2.42;;
70148;SDS011;57514;52.164;5.282;2022-07-30T10:49:39;3.55;;;2.15;;
70148;SDS011;57514;52.164;5.282;2022-07-30T10:52:08;3.65;;;2.13;;
70148;SDS011;57514;52.164;5.282;2022-07-30T10:54:36;7.35;;;2.20;;
70148;SDS011;57514;52.164;5.282;2022-07-30T10:57:11;5.68;;;2.28;;
70148;SDS011;57514;52.164;5.282;2022-07-30T11:02:29;7.60;;;2.80;;
70148;SDS011;57514;52.164;5.282;2022-07-30T11:11:02;5.43;;;2.45;;
70148;SDS011;57514;52.164;5.282;2022-07-30T11:16:21;5.15;;;2.05;;
70148;SDS011;57514;52.164;5.282;2022-07-30T11:19:02;4.43;;;1.90;;
70148;SDS011;57514;52.164;5.282;2022-07-30T11:22:20;3.95;;;2.08;;
70148;SDS011;57514;52.164;5.282;2022-07-30T11:24:50;5.65;;;2.10;;
70148;SDS011;57514;52.164;5.282;2022-07-30T11:27:32;3.83;;;1.90;;
70148;SDS011;57514;52.164;5.282;2022-07-30T11:32:49;5.45;;;1.90;;
70148;SDS011;57514;52.164;5.282;2022-07-30T11:35:22;3.33;;;1.90;;
70148;SDS011;57514;52.164;5.282;2022-07-30T11:38:11;4.35;;;1.88;;
70148;SDS011;57514;52.164;5.282;2022-07-30T11:43:18;5.05;;;1.80;;
70148;SDS011;57514;52.164;5.282;2022-07-30T11:46:15;3.35;;;1.80;;
70148;SDS011;57514;52.164;5.282;2022-07-30T11:48:55;5.53;;;1.90;;
70148;SDS011;57514;52.164;5.282;2022-07-30T11:51:40;5.05;;;1.90;;
70148;SDS011;57514;52.164;5.282;2022-07-30T11:54:08;3.97;;;2.00;;
70148;SDS011;57514;52.164;5.282;2022-07-30T11:56:36;5.47;;;1.58;;
70148;SDS011;57514;52.164;5.282;2022-07-30T11:59:12;4.32;;;1.70;;
70148;SDS011;57514;52.164;5.282;2022-07-30T12:01:39;3.20;;;1.85;;
70148;SDS011;57514;52.164;5.282;2022-07-30T12:04:07;2.67;;;1.70;;
70148;SDS011;57514;52.164;5.282;2022-07-30T12:06:42;4.25;;;1.90;;
70148;SDS011;57514;52.164;5.282;2022-07-30T12:09:10;6.20;;;1.90;;
70148;SDS011;57514;52.164;5.282;2022-07-30T12:11:37;5.53;;;1.90;;
70148;SDS011;57514;52.164;5.282;2022-07-30T12:14:04;6.03;;;1.70;;
70148;SDS011;57514;52.164;5.282;2022-07-30T12:16:31;4.43;;;1.60;;
70148;SDS011;57514;52.164;5.282;2022-07-30T12:19:03;4.53;;;1.95;;
70148;SDS011;57514;52.164;5.282;2022-07-30T12:21:31;3.72;;;1.80;;
70148;SDS011;57514;52.164;5.282;2022-07-30T12:23:59;6.95;;;1.92;;
70148;SDS011;57514;52.164;5.282;2022-07-30T12:26:31;5.72;;;1.98;;
70148;SDS011;57514;52.164;5.282;2022-07-30T12:28:59;5.43;;;1.60;;
70148;SDS011;57514;52.164;5.282;2022-07-30T12:31:29;4.95;;;1.95;;
70148;SDS011;57514;52.164;5.282;2022-07-30T12:33:59;6.88;;;1.95;;
70148;SDS011;57514;52.164;5.282;2022-07-30T12:36:29;7.07;;;2.08;;
70148;SDS011;57514;52.164;5.282;2022-07-30T12:38:58;3.60;;;1.88;;
70148;SDS011;57514;52.164;5.282;2022-07-30T12:41:43;4.10;;;2.17;;
70148;SDS011;57514;52.164;5.282;2022-07-30T12:47:22;3.45;;;1.88;;
70148;SDS011;57514;52.164;5.282;2022-07-30T12:49:54;4.70;;;1.92;;
70148;SDS011;57514;52.164;5.282;2022-07-30T12:52:30;4.75;;;1.90;;
70148;SDS011;57514;52.164;5.282;2022-07-30T12:55:07;5.03;;;1.70;;
70148;SDS011;57514;52.164;5.282;2022-07-30T12:57:55;5.55;;;1.90;;
70148;SDS011;57514;52.164;5.282;2022-07-30T13:00:24;5.00;;;1.80;;
70148;SDS011;57514;52.164;5.282;2022-07-30T13:03:01;3.42;;;1.90;;
70148;SDS011;57514;52.164;5.282;2022-07-30T13:08:10;5.10;;;1.88;;
70148;SDS011;57514;52.164;5.282;2022-07-30T13:10:37;6.80;;;2.17;;
70148;SDS011;57514;52.164;5.282;2022-07-30T13:13:04;5.43;;;1.95;;
70148;SDS011;57514;52.164;5.282;2022-07-30T13:15:31;5.13;;;1.98;;
70148;SDS011;57514;52.164;5.282;2022-07-30T13:17:57;5.63;;;1.80;;
70148;SDS011;57514;52.164;5.282;2022-07-30T13:20:24;5.70;;;1.80;;
70148;SDS011;57514;52.164;5.282;2022-07-30T13:22:51;4.75;;;1.90;;
70148;SDS011;57514;52.164;5.282;2022-07-30T13:25:18;4.72;;;2.30;;
70148;SDS011;57514;52.164;5.282;2022-07-30T13:27:45;5.20;;;1.80;;
70148;SDS011;57514;52.164;5.282;2022-07-30T13:30:12;4.13;;;2.00;;
70148;SDS011;57514;52.164;5.282;2022-07-30T13:32:39;4.03;;;1.70;;
70148;SDS011;57514;52.164;5.282;2022-07-30T13:35:06;3.90;;;1.85;;
70148;SDS011;57514;52.164;5.282;2022-07-30T13:37:33;4.78;;;2.20;;
70148;SDS011;57514;52.164;5.282;2022-07-30T13:40:03;4.97;;;2.15;;
70148;SDS011;57514;52.164;5.282;2022-07-30T13:42:31;4.20;;;2.10;;
70148;SDS011;57514;52.164;5.282;2022-07-30T13:44:58;3.85;;;1.90;;
70148;SDS011;57514;52.164;5.282;2022-07-30T13:47:25;5.82;;;2.25;;
70148;SDS011;57514;52.164;5.282;2022-07-30T13:49:52;3.80;;;2.20;;
70148;SDS011;57514;52.164;5.282;2022-07-30T13:52:19;5.53;;;1.70;;
70148;SDS011;57514;52.164;5.282;2022-07-30T13:54:46;6.05;;;2.20;;
70148;SDS011;57514;52.164;5.282;2022-07-30T13:57:13;4.50;;;2.20;;
70148;SDS011;57514;52.164;5.282;2022-07-30T13:59:40;4.10;;;1.80;;
70148;SDS011;57514;52.164;5.282;2022-07-30T14:02:07;3.97;;;1.95;;
70148;SDS011;57514;52.164;5.282;2022-07-30T14:04:33;7.05;;;1.88;;
70148;SDS011;57514;52.164;5.282;2022-07-30T14:07:00;4.10;;;1.70;;
70148;SDS011;57514;52.164;5.282;2022-07-30T14:09:27;4.78;;;1.80;;
70148;SDS011;57514;52.164;5.282;2022-07-30T14:11:54;6.80;;;2.33;;
70148;SDS011;57514;52.164;5.282;2022-07-30T14:14:21;5.47;;;2.03;;
70148;SDS011;57514;52.164;5.282;2022-07-30T14:16:51;5.13;;;1.83;;
70148;SDS011;57514;52.164;5.282;2022-07-30T14:19:19;3.85;;;1.73;;
70148;SDS011;57514;52.164;5.282;2022-07-30T14:21:49;7.60;;;2.05;;
70148;SDS011;57514;52.164;5.282;2022-07-30T14:24:17;6.82;;;2.20;;
70148;SDS011;57514;52.164;5.282;2022-07-30T14:26:44;8.15;;;2.03;;
70148;SDS011;57514;52.164;5.282;2022-07-30T14:29:11;6.50;;;1.90;;
70148;SDS011;57514;52.164;5.282;2022-07-30T14:31:38;4.47;;;1.77;;
70148;SDS011;57514;52.164;5.282;2022-07-30T14:34:05;4.82;;;1.95;;
70148;SDS011;57514;52.164;5.282;2022-07-30T14:36:32;4.50;;;1.80;;
70148;SDS011;57514;52.164;5.282;2022-07-30T14:38:59;6.25;;;2.15;;
70148;SDS011;57514;52.164;5.282;2022-07-30T14:41:29;4.22;;;2.03;;
70148;SDS011;57514;52.164;5.282;2022-07-30T14:43:56;3.97;;;2.10;;
70148;SDS011;57514;52.164;5.282;2022-07-30T14:46:23;5.05;;;1.70;;
70148;SDS011;57514;52.164;5.282;2022-07-30T14:48:50;5.15;;;2.00;;
70148;SDS011;57514;52.164;5.282;2022-07-30T14:51:17;3.20;;;2.20;;
70148;SDS011;57514;52.164;5.282;2022-07-30T14:53:51;3.53;;;1.88;;
70148;SDS011;57514;52.164;5.282;2022-07-30T14:56:18;5.10;;;2.05;;
70148;SDS011;57514;52.164;5.282;2022-07-30T14:58:49;6.00;;;2.00;;
70148;SDS011;57514;52.164;5.282;2022-07-30T15:01:16;7.55;;;2.60;;
70148;SDS011;57514;52.164;5.282;2022-07-30T15:03:43;4.72;;;1.90;;
70148;SDS011;57514;52.164;5.282;2022-07-30T15:06:10;11.85;;;2.10;;
70148;SDS011;57514;52.164;5.282;2022-07-30T15:08:39;5.22;;;1.95;;
70148;SDS011;57514;52.164;5.282;2022-07-30T15:11:06;6.43;;;2.40;;
70148;SDS011;57514;52.164;5.282;2022-07-30T15:13:35;6.70;;;1.85;;
70148;SDS011;57514;52.164;5.282;2022-07-30T15:16:15;4.97;;;1.88;;
70148;SDS011;57514;52.164;5.282;2022-07-30T15:18:41;4.28;;;1.90;;
70148;SDS011;57514;52.164;5.282;2022-07-30T15:21:08;6.93;;;2.10;;
70148;SDS011;57514;52.164;5.282;2022-07-30T15:26:04;5.28;;;2.22;;
70148;SDS011;57514;52.164;5.282;2022-07-30T15:28:31;4.60;;;1.83;;
70148;SDS011;57514;52.164;5.282;2022-07-30T15:30:58;4.88;;;2.15;;
70148;SDS011;57514;52.164;5.282;2022-07-30T15:33:26;6.25;;;1.90;;
70148;SDS011;57514;52.164;5.282;2022-07-30T15:35:53;6.78;;;2.40;;
70148;SDS011;57514;52.164;5.282;2022-07-30T15:38:21;6.70;;;2.20;;
70148;SDS011;57514;52.164;5.282;2022-07-30T15:40:48;6.05;;;2.10;;
70148;SDS011;57514;52.164;5.282;2022-07-30T15:43:14;5.00;;;1.80;;
70148;SDS011;57514;52.164;5.282;2022-07-30T15:45:41;3.78;;;1.67;;
70148;SDS011;57514;52.164;5.282;2022-07-30T15:48:21;5.82;;;2.40;;
70148;SDS011;57514;52.164;5.282;2022-07-30T15:50:59;5.10;;;2.05;;
70148;SDS011;57514;52.164;5.282;2022-07-30T15:53:30;5.25;;;2.20;;
70148;SDS011;57514;52.164;5.282;2022-07-30T15:55:58;4.88;;;2.03;;
70148;SDS011;57514;52.164;5.282;2022-07-30T15:58:25;3.90;;;1.75;;
70148;SDS011;57514;52.164;5.282;2022-07-30T16:00:52;5.43;;;2.45;;
70148;SDS011;57514;52.164;5.282;2022-07-30T16:03:19;5.63;;;2.10;;
70148;SDS011;57514;52.164;5.282;2022-07-30T16:05:49;7.32;;;2.30;;